createdAt,value
2023-01-30T00:05:50.426Z,22.90
2023-01-30T00:09:47.184Z,18.80
2023-01-30T00:12:15.043Z,15.30
2023-01-30T00:15:22.902Z,17.50
2023-01-30T00:18:40.628Z,21.60
2023-01-30T00:24:42.615Z,19.30
2023-01-30T00:27:41.155Z,18.20
2023-01-30T00:30:32.807Z,19.20
2023-01-30T00:33:28.232Z,20.00
2023-01-30T00:36:21.663Z,17.80
2023-01-30T00:39:20.483Z,17.20
2023-01-30T00:42:46.045Z,14.20
2023-01-30T00:45:59.723Z,18.30
2023-01-30T00:48:54.516Z,17.10
2023-01-30T00:51:46.317Z,21.50
2023-01-30T00:54:37.904Z,20.90
2023-01-30T00:57:37.134Z,23.20
2023-01-30T01:00:29.091Z,20.40
2023-01-30T01:03:28.263Z,19.70
2023-01-30T01:06:33.500Z,21.70
2023-01-30T01:09:27.997Z,20.90
2023-01-30T01:12:32.164Z,23.30
2023-01-30T01:15:43.541Z,23.60
2023-01-30T01:18:40.535Z,23.60
2023-01-30T01:21:32.133Z,22.40
2023-01-30T01:24:25.137Z,18.60
2023-01-30T01:27:17.917Z,23.00
2023-01-30T01:30:14.070Z,20.70
2023-01-30T01:33:05.222Z,21.20
2023-01-30T01:35:59.244Z,22.50
2023-01-30T01:38:50.881Z,22.30
2023-01-30T01:41:42.579Z,14.20
2023-01-30T01:45:03.964Z,21.90
2023-01-30T01:48:03.492Z,22.50
2023-01-30T01:50:56.863Z,21.10
2023-01-30T01:53:58.548Z,21.30
2023-01-30T01:56:51.874Z,25.50
2023-01-30T01:59:46.449Z,19.10
2023-01-30T02:02:50.973Z,22.60
2023-01-30T02:05:45.052Z,18.40
2023-01-30T02:08:38.155Z,20.20
2023-01-30T02:11:32.550Z,23.00
2023-01-30T02:14:23.553Z,24.90
2023-01-30T02:17:15.488Z,17.00
2023-01-30T02:20:10.591Z,24.60
2023-01-30T02:23:23.618Z,20.00
2023-01-30T02:26:50.096Z,21.30
2023-01-30T02:30:21.334Z,19.80
2023-01-30T02:33:21.583Z,17.00
2023-01-30T02:36:21.189Z,21.60
2023-01-30T02:39:20.032Z,23.80
2023-01-30T02:42:15.952Z,20.10
2023-01-30T02:45:11.002Z,18.00
2023-01-30T02:48:03.683Z,18.30
2023-01-30T02:50:57.086Z,14.70
2023-01-30T02:53:49.423Z,18.70
2023-01-30T02:56:52.387Z,17.20
2023-01-30T02:59:49.102Z,17.80
2023-01-30T03:03:17.869Z,20.00
2023-01-30T03:06:17.471Z,13.90
2023-01-30T03:09:15.526Z,18.60
2023-01-30T03:12:10.204Z,16.50
2023-01-30T03:15:02.833Z,16.90
2023-01-30T03:17:54.846Z,17.40
2023-01-30T03:20:46.458Z,15.80
2023-01-30T03:23:38.195Z,17.90
2023-01-30T03:26:31.865Z,14.70
2023-01-30T03:29:22.856Z,14.90
2023-01-30T03:32:14.484Z,18.40
2023-01-30T03:35:07.128Z,17.80
2023-01-30T03:37:58.195Z,17.80
2023-01-30T03:40:50.158Z,15.50
2023-01-30T03:43:41.889Z,11.60
2023-01-30T03:46:34.610Z,18.00
2023-01-30T03:49:26.863Z,14.50
2023-01-30T03:52:18.537Z,12.50
2023-01-30T03:55:11.370Z,14.20
2023-01-30T03:58:02.427Z,14.60
2023-01-30T04:00:55.957Z,10.80
2023-01-30T04:03:47.732Z,13.10
2023-01-30T04:06:39.620Z,14.30
2023-01-30T04:09:31.203Z,13.70
2023-01-30T04:12:22.846Z,14.20
2023-01-30T04:15:16.034Z,12.80
2023-01-30T04:18:07.596Z,13.00
2023-01-30T04:20:59.197Z,11.60
2023-01-30T04:23:50.765Z,12.30
2023-01-30T04:26:42.367Z,9.60
2023-01-30T04:29:33.964Z,11.80
2023-01-30T04:32:25.729Z,14.50
2023-01-30T04:35:17.510Z,15.40
2023-01-30T04:38:09.249Z,10.80
2023-01-30T04:41:01.065Z,14.10
2023-01-30T04:43:52.651Z,17.30
2023-01-30T04:46:44.222Z,11.30
2023-01-30T04:49:35.882Z,11.00
2023-01-30T04:52:27.539Z,14.30
2023-01-30T04:55:19.743Z,11.20
2023-01-30T04:58:11.717Z,12.30
2023-01-30T05:01:16.839Z,12.40
2023-01-30T05:04:08.645Z,11.60
2023-01-30T05:07:00.337Z,12.80
2023-01-30T05:09:54.258Z,15.50
2023-01-30T05:12:46.072Z,15.20
2023-01-30T05:15:37.791Z,12.30
2023-01-30T05:18:29.463Z,11.50
2023-01-30T05:21:22.117Z,11.70
2023-01-30T05:24:13.793Z,12.80
2023-01-30T05:27:05.597Z,11.20
2023-01-30T05:29:57.331Z,13.60
2023-01-30T05:32:48.910Z,13.70
2023-01-30T05:35:40.497Z,9.60
2023-01-30T05:38:32.101Z,10.10
2023-01-30T05:41:23.696Z,10.90
2023-01-30T05:44:15.292Z,8.70
2023-01-30T05:47:07.253Z,10.70
2023-01-30T05:49:58.859Z,11.90
2023-01-30T05:52:50.792Z,10.90
2023-01-30T05:55:43.808Z,8.70
2023-01-30T05:58:35.549Z,10.70
2023-01-30T06:01:27.591Z,10.10
2023-01-30T06:04:19.822Z,11.00
2023-01-30T06:07:11.547Z,10.40
2023-01-30T06:10:03.122Z,10.90
2023-01-30T06:12:54.650Z,13.10
2023-01-30T06:15:46.273Z,10.20
2023-01-30T06:18:37.980Z,12.80
2023-01-30T06:21:29.694Z,13.60
2023-01-30T06:24:21.482Z,13.70
2023-01-30T06:27:14.262Z,11.60
2023-01-30T06:30:07.188Z,12.20
2023-01-30T06:32:59.195Z,11.50
2023-01-30T06:35:52.605Z,13.10
2023-01-30T06:38:44.209Z,11.30
2023-01-30T06:41:36.000Z,12.00
2023-01-30T06:44:27.876Z,13.40
2023-01-30T06:47:18.930Z,13.40
2023-01-30T06:50:12.050Z,13.50
2023-01-30T06:53:05.024Z,11.00
2023-01-30T06:55:56.398Z,12.70
2023-01-30T06:58:48.017Z,9.30
2023-01-30T07:01:39.860Z,11.50
2023-01-30T07:04:31.894Z,11.10
2023-01-30T07:07:23.793Z,11.80
2023-01-30T07:10:15.361Z,12.20
2023-01-30T07:13:06.998Z,12.80
2023-01-30T07:15:58.618Z,11.60
2023-01-30T07:18:50.374Z,11.60
2023-01-30T07:21:42.064Z,9.10
2023-01-30T07:24:33.820Z,11.80
2023-01-30T07:27:25.448Z,11.50
2023-01-30T07:30:17.865Z,11.80
2023-01-30T07:33:08.951Z,13.00
2023-01-30T07:36:00.516Z,10.00
2023-01-30T07:38:52.275Z,12.80
2023-01-30T07:41:44.258Z,10.00
2023-01-30T07:44:35.292Z,10.50
2023-01-30T07:47:26.912Z,11.20
2023-01-30T07:50:19.972Z,9.60
2023-01-30T07:53:12.386Z,11.40
2023-01-30T07:56:09.335Z,9.50
2023-01-30T07:59:00.348Z,10.60
2023-01-30T08:01:52.092Z,9.20
2023-01-30T08:04:43.703Z,12.40
2023-01-30T08:07:35.335Z,12.90
2023-01-30T08:10:27.725Z,11.50
2023-01-30T08:13:19.688Z,11.10
2023-01-30T08:16:11.794Z,10.00
2023-01-30T08:19:05.080Z,12.90
2023-01-30T08:21:56.707Z,11.40
2023-01-30T08:24:48.743Z,14.10
2023-01-30T08:27:40.606Z,12.40
2023-01-30T08:30:32.351Z,11.80
2023-01-30T08:33:24.013Z,11.40
2023-01-30T08:36:15.682Z,11.20
2023-01-30T08:39:07.296Z,11.10
2023-01-30T08:41:58.946Z,10.80
2023-01-30T08:44:50.611Z,12.00
2023-01-30T08:47:43.253Z,9.70
2023-01-30T08:50:34.886Z,14.40
2023-01-30T08:53:26.520Z,17.40
2023-01-30T08:56:18.182Z,12.70
2023-01-30T08:59:09.897Z,10.70
2023-01-30T09:02:01.579Z,12.30
2023-01-30T09:04:53.400Z,10.70
2023-01-30T09:07:44.540Z,12.80
2023-01-30T09:10:36.368Z,9.80
2023-01-30T09:13:28.219Z,11.20
2023-01-30T09:16:19.900Z,12.20
2023-01-30T09:19:11.535Z,10.10
2023-01-30T09:22:02.810Z,10.00
2023-01-30T09:24:54.398Z,12.80
2023-01-30T09:27:46.067Z,11.80
2023-01-30T09:30:37.948Z,9.40
2023-01-30T09:33:29.682Z,13.90
2023-01-30T09:36:21.309Z,10.70
2023-01-30T09:39:12.970Z,10.00
2023-01-30T09:42:21.624Z,12.90
2023-01-30T09:45:52.344Z,12.70
2023-01-30T09:48:48.359Z,9.90
2023-01-30T09:51:46.787Z,11.50
2023-01-30T09:54:39.037Z,9.70
2023-01-30T09:57:30.048Z,10.60
2023-01-30T10:00:24.005Z,12.90
2023-01-30T10:03:16.067Z,12.30
2023-01-30T10:06:11.635Z,10.30
2023-01-30T10:09:06.287Z,13.30
2023-01-30T10:12:04.498Z,11.30
2023-01-30T10:15:07.411Z,10.70
2023-01-30T10:18:18.368Z,14.90
2023-01-30T10:21:15.704Z,12.20
2023-01-30T10:24:14.463Z,13.90
2023-01-30T10:27:05.484Z,13.70
2023-01-30T10:29:58.000Z,9.70
2023-01-30T10:32:52.412Z,10.10
2023-01-30T10:35:43.877Z,11.00
2023-01-30T10:38:38.844Z,9.60
2023-01-30T10:41:32.100Z,10.70
2023-01-30T10:44:24.676Z,11.10
2023-01-30T10:47:49.984Z,10.40
2023-01-30T10:53:36.271Z,7.80
2023-01-30T10:56:32.717Z,11.20
2023-01-30T10:59:26.355Z,10.00
2023-01-30T11:02:26.013Z,8.40
2023-01-30T11:05:22.318Z,7.70
2023-01-30T11:08:20.644Z,9.90
2023-01-30T11:11:27.841Z,11.00
2023-01-30T11:14:18.990Z,10.80
2023-01-30T11:17:18.451Z,11.60
2023-01-30T11:20:14.431Z,12.10
2023-01-30T11:23:08.362Z,10.10
2023-01-30T11:26:10.961Z,13.40
2023-01-30T11:29:04.827Z,10.00
2023-01-30T11:31:56.942Z,11.80
2023-01-30T11:34:48.175Z,12.80
2023-01-30T11:37:40.299Z,9.50
2023-01-30T11:40:34.305Z,9.60
2023-01-30T11:43:27.282Z,11.90
2023-01-30T11:46:20.508Z,10.40
2023-01-30T11:49:45.830Z,13.80
2023-01-30T11:52:30.007Z,11.50
2023-01-30T11:55:21.390Z,11.60
2023-01-30T11:58:13.938Z,12.40
2023-01-30T12:01:06.244Z,11.30
2023-01-30T12:03:57.478Z,11.70
2023-01-30T12:06:49.289Z,10.40
2023-01-30T12:09:41.182Z,12.00
2023-01-30T12:12:34.904Z,11.10
2023-01-30T12:15:28.007Z,13.50
2023-01-30T12:18:22.042Z,11.80
2023-01-30T12:21:16.066Z,13.70
2023-01-30T12:24:14.699Z,14.80
2023-01-30T12:27:06.479Z,9.40
2023-01-30T12:30:03.434Z,15.30
2023-01-30T12:32:54.714Z,11.20
2023-01-30T12:36:02.961Z,13.20
2023-01-30T12:39:02.576Z,15.90
2023-01-30T12:42:09.949Z,12.00
2023-01-30T12:45:07.688Z,12.60
2023-01-30T12:48:18.673Z,10.20
2023-01-30T12:51:15.942Z,15.10
2023-01-30T12:54:09.240Z,12.00
2023-01-30T12:57:15.263Z,16.10
2023-01-30T13:00:15.992Z,13.90
2023-01-30T13:03:20.765Z,15.80
2023-01-30T13:06:22.163Z,13.70
2023-01-30T13:09:25.113Z,12.00
2023-01-30T13:12:21.192Z,14.90
2023-01-30T13:15:20.640Z,18.60
2023-01-30T13:18:15.301Z,16.30
2023-01-30T13:21:10.757Z,15.10
2023-01-30T13:24:11.619Z,19.30
2023-01-30T13:27:03.758Z,15.70
2023-01-30T13:29:55.431Z,15.60
2023-01-30T13:32:48.362Z,14.10
2023-01-30T13:35:44.567Z,15.70
2023-01-30T13:38:35.848Z,16.60
2023-01-30T13:41:27.470Z,17.70
2023-01-30T13:44:22.432Z,17.50
2023-01-30T13:47:21.583Z,16.90
2023-01-30T13:50:47.264Z,15.30
2023-01-30T13:53:42.485Z,13.10
2023-01-30T13:56:41.924Z,15.40
2023-01-30T13:59:47.131Z,12.90
2023-01-30T14:02:38.155Z,15.70
2023-01-30T14:05:59.169Z,16.30
2023-01-30T14:08:59.041Z,16.90
2023-01-30T14:11:59.134Z,16.90
2023-01-30T14:15:02.091Z,12.60
2023-01-30T14:18:07.651Z,16.50
2023-01-30T14:24:05.016Z,14.10
2023-01-30T14:30:38.642Z,18.20
2023-01-30T14:33:39.979Z,15.70
2023-01-30T14:36:48.886Z,13.80
2023-01-30T14:39:44.871Z,14.20
2023-01-30T14:42:37.489Z,18.00
2023-01-30T14:48:32.395Z,15.10
2023-01-30T14:51:29.803Z,16.10
2023-01-30T14:54:40.909Z,17.20
2023-01-30T14:57:34.882Z,12.50
2023-01-30T15:00:32.305Z,16.40
2023-01-30T15:03:25.766Z,14.40
2023-01-30T15:06:20.343Z,15.10
2023-01-30T15:09:13.487Z,16.40
2023-01-30T15:12:24.476Z,13.70
2023-01-30T15:15:24.845Z,13.30
2023-01-30T15:18:32.171Z,11.90
2023-01-30T15:22:05.844Z,17.60
2023-01-30T15:25:21.257Z,17.60
2023-01-30T15:28:25.013Z,15.60
2023-01-30T15:31:19.053Z,11.60
2023-01-30T15:34:22.999Z,12.20
2023-01-30T15:37:31.093Z,14.00
2023-01-30T15:40:27.295Z,13.20
2023-01-30T15:43:30.049Z,12.40
2023-01-30T15:46:27.132Z,14.70
2023-01-30T15:49:41.055Z,12.50
2023-01-30T15:52:44.877Z,10.90
2023-01-30T15:55:39.941Z,11.00
2023-01-30T15:58:32.892Z,14.40
2023-01-30T16:01:26.221Z,11.50
2023-01-30T16:04:32.011Z,11.00
2023-01-30T16:07:28.209Z,12.20
2023-01-30T16:10:22.773Z,13.60
2023-01-30T16:13:15.568Z,14.00
2023-01-30T16:16:12.665Z,13.30
2023-01-30T16:19:06.681Z,12.30
2023-01-30T16:22:01.238Z,12.20
2023-01-30T16:24:54.974Z,12.20
2023-01-30T16:27:50.304Z,11.50
2023-01-30T16:30:42.923Z,14.40
2023-01-30T16:33:37.134Z,14.50
2023-01-30T16:36:41.199Z,19.90
2023-01-30T16:39:35.520Z,19.20
2023-01-30T16:42:30.282Z,20.10
2023-01-30T16:46:24.750Z,15.90
2023-01-30T16:49:21.528Z,11.90
2023-01-30T16:52:22.546Z,13.40
2023-01-30T16:55:23.398Z,19.10
2023-01-30T16:58:17.561Z,12.90
2023-01-30T17:01:11.343Z,12.40
2023-01-30T17:04:04.916Z,10.60
2023-01-30T17:07:01.069Z,14.60
2023-01-30T17:12:50.577Z,13.50
2023-01-30T17:15:43.240Z,13.00
2023-01-30T17:18:35.755Z,11.30
2023-01-30T17:21:31.377Z,11.70
2023-01-30T17:24:24.563Z,11.40
2023-01-30T17:27:17.166Z,11.80
2023-01-30T17:30:17.065Z,13.50
2023-01-30T17:33:11.937Z,13.90
2023-01-30T17:36:04.712Z,17.20
2023-01-30T17:38:57.775Z,14.40
2023-01-30T17:41:50.659Z,12.40
2023-01-30T17:44:43.171Z,14.30
2023-01-30T17:47:36.009Z,23.20
2023-01-30T17:50:29.663Z,14.40
2023-01-30T17:53:22.158Z,11.30
2023-01-30T17:56:44.180Z,12.00
2023-01-30T17:59:36.823Z,12.30
2023-01-30T18:02:31.067Z,10.90
2023-01-30T18:05:24.155Z,16.00
2023-01-30T18:08:16.697Z,8.40
2023-01-30T18:11:11.803Z,15.50
2023-01-30T18:14:06.398Z,15.80
2023-01-30T18:17:00.818Z,10.70
2023-01-30T18:19:54.944Z,11.50
2023-01-30T18:22:48.197Z,12.10
2023-01-30T18:25:40.774Z,12.60
2023-01-30T18:28:33.444Z,10.00
2023-01-30T18:31:26.959Z,12.50
2023-01-30T18:34:19.709Z,11.60
2023-01-30T18:37:12.285Z,10.80
2023-01-30T18:40:05.336Z,11.40
2023-01-30T18:42:58.113Z,10.50
2023-01-30T18:45:50.581Z,10.60
2023-01-30T18:48:43.208Z,10.80
2023-01-30T18:51:36.064Z,9.80
2023-01-30T18:54:29.129Z,10.30
2023-01-30T18:57:21.717Z,10.40
2023-01-30T19:00:17.689Z,11.50
2023-01-30T19:03:10.339Z,18.20
2023-01-30T19:06:04.550Z,11.10
2023-01-30T19:08:57.496Z,10.80
2023-01-30T19:12:07.438Z,10.10
2023-01-30T19:15:00.038Z,9.80
2023-01-30T19:17:52.540Z,8.70
2023-01-30T19:20:45.332Z,7.80
2023-01-30T19:23:37.925Z,10.20
2023-01-30T19:26:32.237Z,10.50
2023-01-30T19:29:24.936Z,11.80
2023-01-30T19:32:17.444Z,10.40
2023-01-30T19:35:11.437Z,10.80
2023-01-30T19:38:04.760Z,17.70
2023-01-30T19:40:57.301Z,10.90
2023-01-30T19:43:49.940Z,9.30
2023-01-30T19:46:43.144Z,9.80
2023-01-30T19:49:36.626Z,10.50
2023-01-30T19:52:29.303Z,9.80
2023-01-30T19:55:21.964Z,9.30
2023-01-30T19:58:14.968Z,10.20
2023-01-30T20:01:12.323Z,11.10
2023-01-30T20:04:06.351Z,9.90
2023-01-30T20:06:59.620Z,11.00
2023-01-30T20:09:52.114Z,11.80
2023-01-30T20:12:44.628Z,8.20
2023-01-30T20:15:37.316Z,8.30
2023-01-30T20:18:30.131Z,9.50
2023-01-30T20:21:23.479Z,8.80
2023-01-30T20:24:17.173Z,10.90
2023-01-30T20:27:09.645Z,9.00
2023-01-30T20:30:02.369Z,9.40
2023-01-30T20:32:57.278Z,7.40
2023-01-30T20:35:49.904Z,9.00
2023-01-30T20:38:44.466Z,9.40
2023-01-30T20:41:37.761Z,8.80
2023-01-30T20:44:31.041Z,9.40
2023-01-30T20:47:23.793Z,10.80
2023-01-30T20:50:17.596Z,9.80
2023-01-30T20:53:11.898Z,9.50
2023-01-30T20:56:05.379Z,9.80
2023-01-30T20:58:58.194Z,9.50
2023-01-30T21:01:51.123Z,7.80
2023-01-30T21:04:44.337Z,8.80
2023-01-30T21:07:37.939Z,10.60
2023-01-30T21:10:31.174Z,8.70
2023-01-30T21:13:25.005Z,9.90
2023-01-30T21:16:19.485Z,9.50
2023-01-30T21:19:16.355Z,10.30
2023-01-30T21:22:10.866Z,9.60
2023-01-30T21:25:05.206Z,11.40
2023-01-30T21:27:59.180Z,17.40
2023-01-30T21:30:52.705Z,10.50
2023-01-30T21:33:46.022Z,8.60
2023-01-30T21:36:39.218Z,9.30
2023-01-30T21:39:49.949Z,8.30
2023-01-30T21:43:00.991Z,8.50
2023-01-30T21:45:59.594Z,9.30
2023-01-30T21:48:53.597Z,8.90
2023-01-30T21:51:47.762Z,9.30
2023-01-30T21:54:41.414Z,9.50
2023-01-30T21:57:34.569Z,8.40
2023-01-30T22:00:27.813Z,9.30
2023-01-30T22:03:21.264Z,8.20
2023-01-30T22:06:14.665Z,8.10
2023-01-30T22:09:08.283Z,9.20
2023-01-30T22:12:01.617Z,9.10
2023-01-30T22:14:54.956Z,8.20
2023-01-30T22:17:48.361Z,8.90
2023-01-30T22:20:40.898Z,13.00
2023-01-30T22:23:37.347Z,12.30
2023-01-30T22:26:30.055Z,10.10
2023-01-30T22:29:23.539Z,9.60
2023-01-30T22:32:16.705Z,9.70
2023-01-30T22:35:11.524Z,10.50
2023-01-30T22:38:05.095Z,8.50
2023-01-30T22:41:05.012Z,10.00
2023-01-30T22:43:59.663Z,9.90
2023-01-30T22:46:53.003Z,9.50
2023-01-30T22:49:46.218Z,9.80
2023-01-30T22:52:39.659Z,9.40
2023-01-30T22:55:35.831Z,9.30
2023-01-30T23:01:23.828Z,10.30
2023-01-30T23:04:19.553Z,11.40
2023-01-30T23:07:14.413Z,9.50
2023-01-30T23:10:08.506Z,8.20
2023-01-30T23:13:15.179Z,9.00
2023-01-30T23:16:08.915Z,8.30
2023-01-30T23:19:04.495Z,9.20
2023-01-30T23:21:57.789Z,10.80
2023-01-30T23:24:51.012Z,9.00
2023-01-30T23:27:44.250Z,9.70
2023-01-30T23:30:39.012Z,6.50
2023-01-30T23:33:32.255Z,7.90
2023-01-30T23:36:25.676Z,7.00
2023-01-30T23:39:18.898Z,7.10
2023-01-30T23:42:12.105Z,7.50
2023-01-30T23:45:05.998Z,8.70
2023-01-30T23:47:58.474Z,7.50
2023-01-30T23:50:51.689Z,6.50
2023-01-30T23:53:45.113Z,6.60
2023-01-30T23:56:41.556Z,6.90
2023-01-30T23:59:34.329Z,6.50
